Portada
METAR-TAF:

METAR-TAF

Aeroports :

Pécs, Hongria

latitud: 46-06N, longitud: 018-14E, altitud: 201 m

Observació

L'informe es va fer fa 29 minuts, a les 09:15 UTC
Vent 6 kt del Sud/Sud-Oest
Temperatura 11°C
Humitat 71%
Pressió 1020 hPa
Visibilitat 10 km o més
sense núvols per sota de 1500 mi sense presència de cumulonimbus.

METAR: LHPP 160915Z 21006KT CAVOK 11/06 Q1020

Hora: 10:44 (09:44 UTC)

Pronòstic

L'informe es va fer fa 1 hora i 29 minuts, a les 08:15 UTC
Pronòstic vàlid del 16 a les 09 UTC al 16 a les 18 UTC
Vent 5 kt del Sud/Sud-Oest
Visibilitat 10 km o més
sense núvols per sota de 1500 mi sense presència de cumulonimbus.

TAF: LHPP 160815Z 1609/1618 20005KT CAVOK

Observacions i pronòstics meteorològics de més de 4000 aeroports (METAR i TAF).

Les estacions disponibles són els punts grocs i vermells al mapa.

Posi el ratolí al punt desitjat per veure el nom de l'estació.

Feu clic per veure les observacions i els pronòstics meteorològics.

Per canviar el mapa: feu clic els botons verds amb una creu de color negre per apropar; al botó verd amb un guió per allunyar la imatge; o en les fletxes verdes per a mapes adjacents.


METAR-TAF: